createdAt,value
2022-10-16T00:00:45.004Z,100212.22
2022-10-16T00:03:14.580Z,100205.81
2022-10-16T00:05:44.524Z,100213.59
2022-10-16T00:08:14.660Z,100203.97
2022-10-16T00:10:44.111Z,100206.66
2022-10-16T00:13:13.585Z,100211.97
2022-10-16T00:15:45.658Z,100201.53
2022-10-16T00:18:15.481Z,100203.16
2022-10-16T00:20:45.008Z,100215.81
2022-10-16T00:23:14.519Z,100204.59
2022-10-16T00:25:44.001Z,100202.50
2022-10-16T00:28:13.452Z,100197.72
2022-10-16T00:30:45.523Z,100202.25
2022-10-16T00:33:14.991Z,100200.66
2022-10-16T00:35:44.539Z,100199.38
2022-10-16T00:38:14.028Z,100201.78
2022-10-16T00:40:43.573Z,100207.94
2022-10-16T00:43:16.906Z,100206.88
2022-10-16T00:45:48.965Z,100215.44
2022-10-16T00:48:18.439Z,100223.69
2022-10-16T00:50:47.902Z,100218.38
2022-10-16T00:53:17.377Z,100223.69
2022-10-16T00:55:47.070Z,100227.41
2022-10-16T00:58:16.511Z,100216.97
2022-10-16T01:00:46.066Z,100216.50
2022-10-16T01:03:30.322Z,100218.47
2022-10-16T01:06:15.616Z,100218.47
2022-10-16T01:08:49.608Z,100217.97
2022-10-16T01:11:21.558Z,100207.31
2022-10-16T01:13:52.612Z,100210.69
2022-10-16T01:16:23.234Z,100212.31
2022-10-16T01:18:57.674Z,100222.44
2022-10-16T01:21:29.215Z,100233.66
2022-10-16T01:24:03.068Z,100223.22
2022-10-16T01:26:41.414Z,100227.50
2022-10-16T01:29:16.788Z,100238.09
2022-10-16T01:31:47.966Z,100234.59
2022-10-16T01:34:18.810Z,100231.72
2022-10-16T01:36:51.155Z,100238.66
2022-10-16T01:39:20.596Z,100246.16
2022-10-16T01:41:51.565Z,100249.44
2022-10-16T01:44:24.356Z,100248.59
2022-10-16T01:46:54.770Z,100244.09
2022-10-16T01:49:24.277Z,100237.59
2022-10-16T01:51:55.856Z,100237.94
2022-10-16T01:54:25.372Z,100242.22
2022-10-16T01:56:54.877Z,100245.38
2022-10-16T01:59:28.295Z,100256.03
2022-10-16T02:01:59.628Z,100263.81
2022-10-16T02:04:31.961Z,100253.28
2022-10-16T02:07:01.462Z,100258.28
2022-10-16T02:09:30.927Z,100266.50
2022-10-16T02:12:00.506Z,100259.78
2022-10-16T02:14:32.992Z,100250.75
2022-10-16T02:17:02.554Z,100257.69
2022-10-16T02:19:32.037Z,100264.63
2022-10-16T02:22:03.484Z,100271.97
2022-10-16T02:24:36.501Z,100270.34
2022-10-16T02:27:09.235Z,100281.81
2022-10-16T02:29:45.448Z,100277.84
2022-10-16T02:32:14.946Z,100275.41
2022-10-16T02:34:44.871Z,100267.41
2022-10-16T02:37:14.317Z,100265.00
2022-10-16T02:39:43.875Z,100261.06
2022-10-16T02:42:14.033Z,100249.81
2022-10-16T02:44:46.102Z,100258.03
2022-10-16T02:47:15.739Z,100267.78
2022-10-16T02:49:45.204Z,100266.50
2022-10-16T02:52:14.679Z,100272.19
2022-10-16T02:54:44.184Z,100265.59
2022-10-16T02:57:13.644Z,100262.91
2022-10-16T02:59:45.692Z,100264.31
2022-10-16T03:02:15.187Z,100270.34
2022-10-16T03:04:44.635Z,100285.50
2022-10-16T03:07:14.090Z,100283.66
2022-10-16T03:09:43.864Z,100286.34
2022-10-16T03:12:13.324Z,100266.41
2022-10-16T03:14:43.540Z,100256.66
2022-10-16T03:17:22.278Z,100259.56
2022-10-16T03:19:51.853Z,100269.75
2022-10-16T03:22:21.326Z,100271.84
2022-10-16T03:24:50.766Z,100268.94
2022-10-16T03:27:20.199Z,100280.88
2022-10-16T03:29:49.645Z,100287.34
2022-10-16T03:32:22.676Z,100283.41
2022-10-16T03:34:52.144Z,100290.41
2022-10-16T03:37:21.588Z,100292.00
2022-10-16T03:39:51.061Z,100281.91
2022-10-16T03:42:20.515Z,100273.91
2022-10-16T03:44:49.985Z,100282.94
2022-10-16T03:47:24.684Z,100294.06
2022-10-16T03:49:54.497Z,100293.63
2022-10-16T03:52:23.986Z,100287.22
2022-10-16T03:54:53.442Z,100291.72
2022-10-16T03:57:23.173Z,100288.03
2022-10-16T03:59:59.159Z,100287.91
2022-10-16T04:02:31.179Z,100292.69
2022-10-16T04:05:01.686Z,100296.50
2022-10-16T04:07:31.123Z,100289.22
2022-10-16T04:10:00.819Z,100304.16
2022-10-16T04:12:30.323Z,100296.28
2022-10-16T04:14:59.916Z,100290.94
2022-10-16T04:17:31.981Z,100301.72
2022-10-16T04:20:01.702Z,100291.28
2022-10-16T04:22:31.144Z,100295.00
2022-10-16T04:25:00.621Z,100295.59
2022-10-16T04:27:32.218Z,100295.34
2022-10-16T04:30:01.723Z,100306.84
2022-10-16T04:32:33.774Z,100300.69
2022-10-16T04:35:03.899Z,100315.66
2022-10-16T04:37:33.386Z,100315.66
2022-10-16T04:40:03.267Z,100321.78
2022-10-16T04:42:32.732Z,100319.72
2022-10-16T04:45:02.231Z,100312.06
2022-10-16T04:47:34.262Z,100319.00
2022-10-16T04:50:03.812Z,100319.47
2022-10-16T04:55:22.777Z,100313.69
2022-10-16T04:57:52.221Z,100311.84
2022-10-16T05:00:23.239Z,100309.41
2022-10-16T05:02:55.983Z,100311.84
2022-10-16T05:05:25.485Z,100315.53
2022-10-16T05:07:54.966Z,100319.84
2022-10-16T05:10:24.448Z,100316.13
2022-10-16T05:12:54.030Z,100315.28
2022-10-16T05:15:25.922Z,100307.06
2022-10-16T05:17:59.139Z,100316.91
2022-10-16T05:20:28.633Z,100316.13
2022-10-16T05:23:03.494Z,100331.28
2022-10-16T05:25:43.147Z,100334.78
2022-10-16T05:28:13.274Z,100336.19
2022-10-16T05:30:43.203Z,100327.94
2022-10-16T05:33:15.631Z,100348.56
2022-10-16T05:35:52.672Z,100354.25
2022-10-16T05:38:25.222Z,100346.97
2022-10-16T05:40:55.267Z,100345.31
2022-10-16T05:43:24.708Z,100350.41
2022-10-16T05:46:02.923Z,100347.31
2022-10-16T05:48:35.006Z,100350.75
2022-10-16T05:51:08.985Z,100358.28
2022-10-16T05:53:39.686Z,100365.13
2022-10-16T05:56:10.290Z,100370.22
2022-10-16T05:58:43.376Z,100372.53
2022-10-16T06:01:14.119Z,100375.13
2022-10-16T06:03:47.473Z,100375.25
2022-10-16T06:06:17.876Z,100367.69
2022-10-16T06:08:48.525Z,100360.50
2022-10-16T06:11:18.879Z,100363.53
2022-10-16T06:13:54.591Z,100364.56
2022-10-16T06:16:24.148Z,100353.91
2022-10-16T06:18:57.251Z,100361.09
2022-10-16T06:21:30.053Z,100359.25
2022-10-16T06:23:59.848Z,100358.41
2022-10-16T06:26:30.268Z,100366.41
2022-10-16T06:29:00.393Z,100369.44
2022-10-16T06:31:32.113Z,100374.75
2022-10-16T06:34:05.785Z,100376.53
2022-10-16T06:36:35.239Z,100380.78
2022-10-16T06:39:04.727Z,100381.97
2022-10-16T06:41:34.224Z,100393.31
2022-10-16T06:44:03.672Z,100393.09
2022-10-16T06:46:33.143Z,100395.31
2022-10-16T06:49:05.231Z,100392.16
2022-10-16T06:51:39.124Z,100391.59
2022-10-16T06:54:11.791Z,100395.06
2022-10-16T06:56:41.304Z,100395.75
2022-10-16T06:59:10.752Z,100405.22
2022-10-16T07:01:40.222Z,100414.41
2022-10-16T07:04:12.250Z,100417.19
2022-10-16T07:06:41.796Z,100416.72
2022-10-16T07:09:12.715Z,100430.75
2022-10-16T07:11:42.493Z,100424.75
2022-10-16T07:14:16.786Z,100441.69
2022-10-16T07:16:46.274Z,100440.66
2022-10-16T07:19:19.078Z,100450.84
2022-10-16T07:21:48.573Z,100452.81
2022-10-16T07:24:19.318Z,100444.59
2022-10-16T07:26:48.981Z,100442.53
2022-10-16T07:29:19.802Z,100458.66
2022-10-16T07:31:49.490Z,100460.84
2022-10-16T07:34:22.610Z,100456.91
2022-10-16T07:36:52.892Z,100461.53
2022-10-16T07:39:22.420Z,100477.00
2022-10-16T07:41:51.883Z,100468.56
2022-10-16T07:44:21.370Z,100472.34
2022-10-16T07:46:50.811Z,100477.81
2022-10-16T07:49:22.832Z,100485.38
2022-10-16T07:51:52.278Z,100482.81
2022-10-16T07:54:21.747Z,100484.34
2022-10-16T07:56:51.196Z,100499.06
2022-10-16T07:59:20.664Z,100503.94
2022-10-16T08:01:50.160Z,100506.59
2022-10-16T08:04:22.308Z,100512.88
2022-10-16T08:06:51.786Z,100516.22
2022-10-16T08:09:21.254Z,100519.84
2022-10-16T08:11:50.708Z,100514.53
2022-10-16T08:14:20.168Z,100521.94
2022-10-16T08:16:49.600Z,100528.09
2022-10-16T08:19:19.284Z,100534.03
2022-10-16T08:21:53.455Z,100545.28
2022-10-16T08:24:23.380Z,100552.59
2022-10-16T08:26:52.892Z,100551.06
2022-10-16T08:29:22.397Z,100550.03
2022-10-16T08:31:51.899Z,100542.09
2022-10-16T08:34:21.366Z,100550.25
2022-10-16T08:36:53.796Z,100544.44
2022-10-16T08:39:23.234Z,100540.13
2022-10-16T08:42:14.470Z,100544.31
2022-10-16T08:44:51.213Z,100551.19
2022-10-16T08:47:21.957Z,100553.88
2022-10-16T08:49:58.757Z,100562.09
2022-10-16T08:52:33.129Z,100567.94
2022-10-16T08:55:02.883Z,100564.31
2022-10-16T08:57:33.667Z,100565.25
2022-10-16T09:00:04.254Z,100572.56
2022-10-16T09:02:35.471Z,100576.75
2022-10-16T09:05:26.950Z,100576.63
2022-10-16T09:08:06.674Z,100586.13
2022-10-16T09:10:43.227Z,100588.22
2022-10-16T09:13:18.485Z,100589.19
2022-10-16T09:15:50.636Z,100602.75
2022-10-16T09:18:23.129Z,100597.56
2022-10-16T09:20:54.379Z,100591.50
2022-10-16T09:23:28.842Z,100597.50
2022-10-16T09:25:58.783Z,100588.72
2022-10-16T09:28:28.279Z,100598.38
2022-10-16T09:30:57.763Z,100596.31
2022-10-16T09:33:28.924Z,100603.34
2022-10-16T09:35:59.853Z,100607.97
2022-10-16T09:38:33.558Z,100605.91
2022-10-16T09:41:03.812Z,100605.66
2022-10-16T09:43:37.528Z,100603.91
2022-10-16T09:46:08.000Z,100607.31
2022-10-16T09:48:40.845Z,100616.94
2022-10-16T09:51:21.964Z,100603.69
2022-10-16T09:53:57.406Z,100614.94
2022-10-16T09:56:27.487Z,100612.28
2022-10-16T09:58:57.895Z,100616.72
2022-10-16T10:01:30.384Z,100613.78
2022-10-16T10:04:02.109Z,100616.69
2022-10-16T10:06:32.860Z,100612.31
2022-10-16T10:09:08.083Z,100609.50
2022-10-16T10:11:56.912Z,100615.03
2022-10-16T10:14:34.521Z,100608.19
2022-10-16T10:17:15.211Z,100614.25
2022-10-16T10:19:45.858Z,100620.22
2022-10-16T10:22:32.736Z,100624.50
2022-10-16T10:25:26.370Z,100625.41
2022-10-16T10:28:09.677Z,100627.75
2022-10-16T10:30:42.119Z,100632.19
2022-10-16T10:33:19.063Z,100635.66
2022-10-16T10:35:51.446Z,100635.44
2022-10-16T10:38:27.933Z,100629.47
2022-10-16T10:41:05.565Z,100627.16
2022-10-16T10:43:44.116Z,100637.38
2022-10-16T10:46:15.901Z,100633.94
2022-10-16T10:48:54.640Z,100625.56
2022-10-16T10:51:26.802Z,100625.06
2022-10-16T10:53:59.259Z,100624.06
2022-10-16T10:56:43.346Z,100621.34
2022-10-16T11:00:01.841Z,100615.56
2022-10-16T11:02:35.647Z,100618.97
2022-10-16T11:05:34.930Z,100613.19
2022-10-16T11:08:05.747Z,100626.72
2022-10-16T11:10:38.724Z,100617.72
2022-10-16T11:13:17.332Z,100621.84
2022-10-16T11:15:46.832Z,100615.13
2022-10-16T11:18:19.708Z,100621.53
2022-10-16T11:20:51.060Z,100617.69
2022-10-16T11:23:22.373Z,100609.84
2022-10-16T11:25:51.990Z,100617.81
2022-10-16T11:28:27.884Z,100610.66
2022-10-16T11:31:02.905Z,100611.47
2022-10-16T11:33:35.043Z,100603.91
2022-10-16T11:36:07.799Z,100605.69
2022-10-16T11:38:39.256Z,100607.16
2022-10-16T11:41:13.931Z,100606.63
2022-10-16T11:43:47.032Z,100617.53
2022-10-16T11:46:18.995Z,100612.69
2022-10-16T11:48:50.781Z,100614.84
2022-10-16T11:51:23.578Z,100617.31
2022-10-16T11:53:56.450Z,100619.91
2022-10-16T11:56:26.006Z,100612.06
2022-10-16T11:59:00.723Z,100614.88
2022-10-16T12:01:33.697Z,100610.63
2022-10-16T12:04:09.087Z,100616.25
2022-10-16T12:06:39.307Z,100618.28
2022-10-16T12:09:08.782Z,100615.81
2022-10-16T12:11:40.435Z,100617.19
2022-10-16T12:14:26.192Z,100623.16
2022-10-16T12:16:57.435Z,100622.69
2022-10-16T12:19:27.839Z,100618.81
2022-10-16T12:21:59.927Z,100628.56
2022-10-16T12:24:36.399Z,100633.53
2022-10-16T12:27:06.151Z,100623.41
2022-10-16T12:29:40.102Z,100621.03
2022-10-16T12:32:13.083Z,100618.50
2022-10-16T12:34:46.064Z,100619.38
2022-10-16T12:37:18.156Z,100619.44
2022-10-16T12:39:47.622Z,100630.75
2022-10-16T12:42:34.446Z,100624.81
2022-10-16T12:45:25.243Z,100621.81
2022-10-16T12:47:55.857Z,100630.28
2022-10-16T12:50:34.384Z,100626.06
2022-10-16T12:53:04.314Z,100627.78
2022-10-16T12:55:38.071Z,100632.63
2022-10-16T12:58:13.325Z,100625.50
2022-10-16T13:00:48.341Z,100625.75
2022-10-16T13:03:56.213Z,100614.59
2022-10-16T13:06:31.122Z,100625.75
2022-10-16T13:09:16.572Z,100624.44
2022-10-16T13:12:13.602Z,100625.81
2022-10-16T13:15:21.181Z,100620.03
2022-10-16T13:17:57.562Z,100628.19
2022-10-16T13:20:31.392Z,100632.72
2022-10-16T13:23:04.813Z,100627.94
2022-10-16T13:25:39.544Z,100624.00
2022-10-16T13:28:10.258Z,100621.22
2022-10-16T13:30:42.347Z,100612.19
2022-10-16T13:33:17.373Z,100602.72
2022-10-16T13:35:52.458Z,100602.56
2022-10-16T13:38:23.160Z,100604.22
2022-10-16T13:40:54.234Z,100600.66
2022-10-16T13:43:23.874Z,100597.97
2022-10-16T13:46:03.682Z,100607.34
2022-10-16T13:48:36.147Z,100609.19
2022-10-16T13:51:07.283Z,100615.59
2022-10-16T13:53:37.518Z,100612.75
2022-10-16T13:56:08.309Z,100616.97
2022-10-16T13:58:37.738Z,100621.19
2022-10-16T14:01:09.743Z,100616.94
2022-10-16T14:03:41.787Z,100619.25
2022-10-16T14:06:16.765Z,100623.53
2022-10-16T14:08:47.076Z,100619.13
2022-10-16T14:11:16.504Z,100617.66
2022-10-16T14:13:47.727Z,100612.81
2022-10-16T14:16:20.549Z,100626.59
2022-10-16T14:18:56.208Z,100620.75
2022-10-16T14:21:26.221Z,100618.13
2022-10-16T14:23:56.600Z,100628.31
2022-10-16T14:26:26.923Z,100629.31
2022-10-16T14:29:07.586Z,100626.78
2022-10-16T14:31:37.974Z,100627.63
2022-10-16T14:34:34.779Z,100621.19
2022-10-16T14:39:57.757Z,100624.47
2022-10-16T14:42:28.259Z,100629.41
2022-10-16T14:44:57.944Z,100626.06
2022-10-16T14:47:28.989Z,100637.00
2022-10-16T14:50:01.467Z,100625.50
2022-10-16T14:52:30.937Z,100630.75
2022-10-16T14:55:00.408Z,100626.53
2022-10-16T14:57:31.332Z,100628.19
2022-10-16T15:00:00.524Z,100622.41
2022-10-16T15:02:32.701Z,100639.41
2022-10-16T15:05:11.287Z,100640.41
2022-10-16T15:07:40.732Z,100639.59
2022-10-16T15:10:10.634Z,100636.38
2022-10-16T15:12:40.111Z,100633.97
2022-10-16T15:15:22.959Z,100639.00
2022-10-16T15:17:53.562Z,100637.56
2022-10-16T15:20:25.740Z,100644.06
2022-10-16T15:22:55.241Z,100649.53
2022-10-16T15:25:33.290Z,100654.56
2022-10-16T15:28:02.816Z,100648.47
2022-10-16T15:30:32.319Z,100650.34
2022-10-16T15:33:01.870Z,100656.00
2022-10-16T15:35:33.919Z,100660.84
2022-10-16T15:38:03.362Z,100647.66
2022-10-16T15:40:33.129Z,100650.34
2022-10-16T15:43:02.604Z,100652.00
2022-10-16T15:45:32.046Z,100649.31
2022-10-16T15:48:01.486Z,100650.94
2022-10-16T15:50:33.787Z,100652.28
2022-10-16T15:53:03.326Z,100650.34
2022-10-16T15:55:32.778Z,100644.66
2022-10-16T15:58:02.245Z,100650.81
2022-10-16T16:00:31.697Z,100645.13
2022-10-16T16:03:01.156Z,100642.88
2022-10-16T16:05:34.365Z,100650.66
2022-10-16T16:08:03.801Z,100648.75
2022-10-16T16:10:33.292Z,100646.84
2022-10-16T16:13:02.718Z,100639.06
2022-10-16T16:15:32.175Z,100642.31
2022-10-16T16:18:02.850Z,100647.16
2022-10-16T16:20:34.920Z,100641.25
2022-10-16T16:23:04.358Z,100643.09
2022-10-16T16:25:33.829Z,100639.63
2022-10-16T16:28:03.261Z,100643.94
2022-10-16T16:30:32.833Z,100644.47
2022-10-16T16:33:02.286Z,100659.03
2022-10-16T16:35:34.349Z,100648.22
2022-10-16T16:38:03.824Z,100651.66
2022-10-16T16:40:33.277Z,100651.34
2022-10-16T16:43:03.569Z,100647.81
2022-10-16T16:45:33.054Z,100652.88
2022-10-16T16:48:02.476Z,100650.69
2022-10-16T16:50:35.819Z,100650.69
2022-10-16T16:53:05.300Z,100651.19
2022-10-16T16:55:34.772Z,100650.63
2022-10-16T16:58:04.644Z,100660.78
2022-10-16T17:00:34.470Z,100663.41
2022-10-16T17:03:04.003Z,100662.84
2022-10-16T17:05:36.072Z,100671.06
2022-10-16T17:08:05.611Z,100671.31
2022-10-16T17:10:35.050Z,100673.16
2022-10-16T17:13:04.525Z,100666.69
2022-10-16T17:15:34.192Z,100666.38
2022-10-16T17:18:03.649Z,100668.22
2022-10-16T17:20:36.918Z,100677.34
2022-10-16T17:23:06.404Z,100680.75
2022-10-16T17:25:35.925Z,100674.25
2022-10-16T17:28:05.380Z,100671.75
2022-10-16T17:30:35.658Z,100688.53
2022-10-16T17:33:05.103Z,100691.97
2022-10-16T17:35:42.152Z,100692.47
2022-10-16T17:38:12.177Z,100695.06
2022-10-16T17:40:42.337Z,100694.72
2022-10-16T17:43:11.800Z,100705.19
2022-10-16T17:45:41.419Z,100701.72
2022-10-16T17:48:10.836Z,100703.00
2022-10-16T17:50:45.534Z,100715.81
2022-10-16T17:53:15.073Z,100711.16
2022-10-16T17:55:44.524Z,100712.47
2022-10-16T17:58:13.967Z,100712.94
2022-10-16T18:00:43.428Z,100711.56
2022-10-16T18:03:12.889Z,100717.41
2022-10-16T18:05:44.940Z,100720.78
2022-10-16T18:08:14.387Z,100718.38
2022-10-16T18:10:48.598Z,100723.38
2022-10-16T18:13:18.213Z,100725.16
2022-10-16T18:15:47.914Z,100726.47
2022-10-16T18:18:17.398Z,100731.81
2022-10-16T18:20:58.676Z,100733.66
2022-10-16T18:23:28.170Z,100742.75
2022-10-16T18:25:58.026Z,100745.09
2022-10-16T18:28:27.528Z,100744.88
2022-10-16T18:31:00.218Z,100750.94
2022-10-16T18:33:30.796Z,100750.94
2022-10-16T18:36:03.397Z,100744.78
2022-10-16T18:38:33.024Z,100746.31
2022-10-16T18:41:05.524Z,100744.91
2022-10-16T18:43:35.031Z,100734.53
2022-10-16T18:46:05.144Z,100741.78
2022-10-16T18:48:34.857Z,100746.75
2022-10-16T18:51:14.811Z,100746.44
2022-10-16T18:53:45.186Z,100743.41
2022-10-16T18:56:15.078Z,100742.03
2022-10-16T18:58:44.783Z,100738.56
2022-10-16T19:01:16.686Z,100745.19
2022-10-16T19:03:46.515Z,100741.13
2022-10-16T19:06:18.907Z,100748.91
2022-10-16T19:08:48.351Z,100757.44
2022-10-16T19:11:18.669Z,100760.34
2022-10-16T19:13:48.422Z,100756.03
2022-10-16T19:16:20.670Z,100753.59
2022-10-16T19:18:51.287Z,100764.84
2022-10-16T19:21:24.328Z,100768.03
2022-10-16T19:23:54.356Z,100770.94
2022-10-16T19:26:23.922Z,100776.50
2022-10-16T19:28:53.726Z,100784.78
2022-10-16T19:31:24.679Z,100782.03
2022-10-16T19:33:54.635Z,100775.84
2022-10-16T19:36:27.741Z,100773.63
2022-10-16T19:38:57.885Z,100780.81
2022-10-16T19:41:27.528Z,100778.03
2022-10-16T19:43:56.978Z,100781.28
2022-10-16T19:46:27.353Z,100784.78
2022-10-16T19:48:57.425Z,100784.31
2022-10-16T19:51:29.642Z,100786.19
2022-10-16T19:54:00.094Z,100785.94
2022-10-16T19:56:30.414Z,100780.81
2022-10-16T19:59:00.354Z,100780.81
2022-10-16T20:01:32.086Z,100785.84
2022-10-16T20:04:01.658Z,100775.94
2022-10-16T20:06:34.118Z,100783.28
2022-10-16T20:09:03.562Z,100792.13
2022-10-16T20:11:33.780Z,100785.59
2022-10-16T20:14:03.215Z,100789.34
2022-10-16T20:16:33.106Z,100788.16
2022-10-16T20:19:02.616Z,100789.00
2022-10-16T20:21:35.448Z,100788.16
2022-10-16T20:24:06.451Z,100793.06
2022-10-16T20:26:35.874Z,100792.94
2022-10-16T20:29:05.668Z,100791.88
2022-10-16T20:31:35.428Z,100801.19
2022-10-16T20:34:05.918Z,100800.38
2022-10-16T20:36:38.088Z,100803.50
2022-10-16T20:39:07.802Z,100805.13
2022-10-16T20:41:37.377Z,100805.84
2022-10-16T20:44:07.194Z,100810.00
2022-10-16T20:46:36.692Z,100808.03
2022-10-16T20:49:10.978Z,100804.31
2022-10-16T20:51:44.013Z,100820.44
2022-10-16T20:54:13.464Z,100816.38
2022-10-16T20:56:43.983Z,100820.94
2022-10-16T20:59:13.816Z,100821.38
2022-10-16T21:01:43.389Z,100823.81
2022-10-16T21:04:13.022Z,100827.28
2022-10-16T21:06:45.368Z,100820.31
2022-10-16T21:09:14.848Z,100818.91
2022-10-16T21:11:44.299Z,100821.03
2022-10-16T21:14:13.771Z,100813.22
2022-10-16T21:16:43.241Z,100811.59
2022-10-16T21:19:12.684Z,100821.94
2022-10-16T21:21:44.780Z,100816.22
2022-10-16T21:24:16.635Z,100815.84
2022-10-16T21:26:46.972Z,100821.47
2022-10-16T21:29:16.464Z,100817.13
2022-10-16T21:31:45.986Z,100810.59
2022-10-16T21:34:15.450Z,100808.16
2022-10-16T21:36:47.495Z,100813.16
2022-10-16T21:39:17.552Z,100810.22
2022-10-16T21:41:47.930Z,100814.16
2022-10-16T21:44:17.457Z,100817.31
2022-10-16T21:46:47.152Z,100819.16
2022-10-16T21:49:17.427Z,100818.09
2022-10-16T21:51:50.687Z,100823.09
2022-10-16T21:54:21.707Z,100814.72
2022-10-16T21:56:50.979Z,100814.94
2022-10-16T21:59:20.496Z,100823.56
2022-10-16T22:01:50.074Z,100826.31
2022-10-16T22:04:19.569Z,100820.97
2022-10-16T22:06:51.603Z,100826.31
2022-10-16T22:09:21.058Z,100824.69
2022-10-16T22:11:51.026Z,100832.69
2022-10-16T22:14:23.415Z,100840.94
2022-10-16T22:16:52.919Z,100835.81
2022-10-16T22:19:23.883Z,100831.72
2022-10-16T22:21:57.230Z,100839.38
2022-10-16T22:24:26.902Z,100843.69
2022-10-16T22:26:56.400Z,100846.81
2022-10-16T22:29:25.960Z,100844.38
2022-10-16T22:31:55.748Z,100846.69
2022-10-16T22:34:25.264Z,100848.75
2022-10-16T22:36:57.256Z,100847.13
2022-10-16T22:39:28.200Z,100839.56
2022-10-16T22:41:57.635Z,100836.91
2022-10-16T22:44:28.804Z,100849.22
2022-10-16T22:46:58.275Z,100848.00
2022-10-16T22:49:27.820Z,100853.56
2022-10-16T22:51:59.857Z,100860.16
2022-10-16T22:54:29.329Z,100862.69
2022-10-16T22:56:58.815Z,100867.25
2022-10-16T22:59:28.359Z,100860.03
2022-10-16T23:01:57.786Z,100864.31
2022-10-16T23:04:27.231Z,100863.97
2022-10-16T23:07:00.157Z,100857.66
2022-10-16T23:09:29.604Z,100870.66
2022-10-16T23:11:59.043Z,100865.06
2022-10-16T23:14:28.543Z,100873.53
2022-10-16T23:16:57.932Z,100868.41
2022-10-16T23:19:27.465Z,100870.72
2022-10-16T23:21:59.706Z,100868.94
2022-10-16T23:24:29.207Z,100865.81
2022-10-16T23:26:58.611Z,100872.19
2022-10-16T23:29:28.064Z,100876.13
2022-10-16T23:31:57.485Z,100872.03
2022-10-16T23:34:27.015Z,100889.50
2022-10-16T23:36:59.038Z,100886.44
2022-10-16T23:39:28.635Z,100875.28
2022-10-16T23:41:58.060Z,100888.16
2022-10-16T23:44:27.577Z,100878.09
2022-10-16T23:46:56.995Z,100884.28
2022-10-16T23:49:26.597Z,100901.47
2022-10-16T23:51:56.061Z,100886.69
2022-10-16T23:54:28.195Z,100885.88
2022-10-16T23:56:57.597Z,100891.31
2022-10-16T23:59:27.070Z,100903.50
